sensor_id;sensor_type;location;lat;lon;timestamp;P1;durP1;ratioP1;P2;durP2;ratioP2
69083;SDS011;56185;48.526;9.044;2023-01-30T00:01:29;14.45;;;8.73;;
69083;SDS011;56185;48.526;9.044;2023-01-30T00:03:55;17.35;;;9.52;;
69083;SDS011;56185;48.526;9.044;2023-01-30T00:06:20;18.05;;;9.70;;
69083;SDS011;56185;48.526;9.044;2023-01-30T00:08:47;15.90;;;9.10;;
69083;SDS011;56185;48.526;9.044;2023-01-30T00:11:14;17.17;;;10.15;;
69083;SDS011;56185;48.526;9.044;2023-01-30T00:13:40;16.88;;;9.57;;
69083;SDS011;56185;48.526;9.044;2023-01-30T00:16:07;16.80;;;9.32;;
69083;SDS011;56185;48.526;9.044;2023-01-30T00:18:33;16.20;;;9.48;;
69083;SDS011;56185;48.526;9.044;2023-01-30T00:20:59;16.27;;;9.30;;
69083;SDS011;56185;48.526;9.044;2023-01-30T00:23:26;15.25;;;8.82;;
69083;SDS011;56185;48.526;9.044;2023-01-30T00:25:52;16.83;;;9.30;;
69083;SDS011;56185;48.526;9.044;2023-01-30T00:28:18;16.65;;;10.10;;
69083;SDS011;56185;48.526;9.044;2023-01-30T00:30:43;17.38;;;9.95;;
69083;SDS011;56185;48.526;9.044;2023-01-30T00:33:09;17.75;;;9.85;;
69083;SDS011;56185;48.526;9.044;2023-01-30T00:35:35;17.27;;;9.82;;
69083;SDS011;56185;48.526;9.044;2023-01-30T00:38:00;18.08;;;10.02;;
69083;SDS011;56185;48.526;9.044;2023-01-30T00:40:26;17.55;;;9.73;;
69083;SDS011;56185;48.526;9.044;2023-01-30T00:42:53;15.73;;;8.95;;
69083;SDS011;56185;48.526;9.044;2023-01-30T00:45:18;16.08;;;9.38;;
69083;SDS011;56185;48.526;9.044;2023-01-30T00:47:44;15.77;;;9.30;;
69083;SDS011;56185;48.526;9.044;2023-01-30T00:50:10;14.93;;;8.73;;
69083;SDS011;56185;48.526;9.044;2023-01-30T00:52:35;15.52;;;9.25;;
69083;SDS011;56185;48.526;9.044;2023-01-30T00:55:00;16.95;;;9.77;;
69083;SDS011;56185;48.526;9.044;2023-01-30T00:57:25;17.85;;;9.43;;
69083;SDS011;56185;48.526;9.044;2023-01-30T00:59:51;15.32;;;8.90;;
69083;SDS011;56185;48.526;9.044;2023-01-30T01:02:16;16.42;;;9.95;;
69083;SDS011;56185;48.526;9.044;2023-01-30T01:04:41;16.25;;;9.13;;
69083;SDS011;56185;48.526;9.044;2023-01-30T01:07:07;15.25;;;8.52;;
69083;SDS011;56185;48.526;9.044;2023-01-30T01:09:36;15.20;;;8.68;;
69083;SDS011;56185;48.526;9.044;2023-01-30T01:12:01;15.75;;;8.98;;
69083;SDS011;56185;48.526;9.044;2023-01-30T01:14:27;16.10;;;9.18;;
69083;SDS011;56185;48.526;9.044;2023-01-30T01:16:52;19.15;;;9.70;;
69083;SDS011;56185;48.526;9.044;2023-01-30T01:19:17;17.85;;;8.85;;
69083;SDS011;56185;48.526;9.044;2023-01-30T01:21:43;17.83;;;9.40;;
69083;SDS011;56185;48.526;9.044;2023-01-30T01:24:09;17.85;;;10.13;;
69083;SDS011;56185;48.526;9.044;2023-01-30T01:26:36;14.40;;;8.73;;
69083;SDS011;56185;48.526;9.044;2023-01-30T01:29:01;16.02;;;9.23;;
69083;SDS011;56185;48.526;9.044;2023-01-30T01:31:26;16.80;;;9.30;;
69083;SDS011;56185;48.526;9.044;2023-01-30T01:33:52;14.60;;;8.88;;
69083;SDS011;56185;48.526;9.044;2023-01-30T01:36:17;16.73;;;9.85;;
69083;SDS011;56185;48.526;9.044;2023-01-30T01:38:42;17.73;;;9.43;;
69083;SDS011;56185;48.526;9.044;2023-01-30T01:41:09;16.15;;;8.93;;
69083;SDS011;56185;48.526;9.044;2023-01-30T01:43:37;16.15;;;9.27;;
69083;SDS011;56185;48.526;9.044;2023-01-30T01:46:23;16.42;;;8.52;;
69083;SDS011;56185;48.526;9.044;2023-01-30T01:48:52;14.00;;;8.73;;
69083;SDS011;56185;48.526;9.044;2023-01-30T01:51:35;14.57;;;9.15;;
69083;SDS011;56185;48.526;9.044;2023-01-30T01:54:26;15.38;;;9.27;;
69083;SDS011;56185;48.526;9.044;2023-01-30T01:56:58;16.88;;;9.93;;
69083;SDS011;56185;48.526;9.044;2023-01-30T01:59:33;15.85;;;9.77;;
69083;SDS011;56185;48.526;9.044;2023-01-30T02:02:05;17.30;;;9.38;;
69083;SDS011;56185;48.526;9.044;2023-01-30T02:04:32;15.30;;;9.00;;
69083;SDS011;56185;48.526;9.044;2023-01-30T02:07:00;18.17;;;9.02;;
69083;SDS011;56185;48.526;9.044;2023-01-30T02:09:25;16.27;;;9.13;;
69083;SDS011;56185;48.526;9.044;2023-01-30T02:11:51;15.73;;;9.13;;
69083;SDS011;56185;48.526;9.044;2023-01-30T02:14:20;17.60;;;9.02;;
69083;SDS011;56185;48.526;9.044;2023-01-30T02:16:46;16.90;;;8.52;;
69083;SDS011;56185;48.526;9.044;2023-01-30T02:19:23;18.42;;;9.15;;
69083;SDS011;56185;48.526;9.044;2023-01-30T02:22:25;14.38;;;8.10;;
69083;SDS011;56185;48.526;9.044;2023-01-30T02:24:58;13.02;;;8.05;;
69083;SDS011;56185;48.526;9.044;2023-01-30T02:30:42;15.57;;;8.82;;
69083;SDS011;56185;48.526;9.044;2023-01-30T02:39:05;14.75;;;7.65;;
69083;SDS011;56185;48.526;9.044;2023-01-30T02:41:49;14.88;;;8.65;;
69083;SDS011;56185;48.526;9.044;2023-01-30T02:47:10;14.45;;;8.48;;
69083;SDS011;56185;48.526;9.044;2023-01-30T02:49:41;15.05;;;9.18;;
69083;SDS011;56185;48.526;9.044;2023-01-30T02:52:12;12.70;;;7.78;;
69083;SDS011;56185;48.526;9.044;2023-01-30T02:54:38;15.52;;;8.77;;
69083;SDS011;56185;48.526;9.044;2023-01-30T02:57:14;12.80;;;7.88;;
69083;SDS011;56185;48.526;9.044;2023-01-30T02:59:43;14.63;;;8.23;;
69083;SDS011;56185;48.526;9.044;2023-01-30T03:07:41;17.95;;;8.70;;
69083;SDS011;56185;48.526;9.044;2023-01-30T03:10:22;14.80;;;8.73;;
69083;SDS011;56185;48.526;9.044;2023-01-30T03:12:57;14.68;;;8.43;;
69083;SDS011;56185;48.526;9.044;2023-01-30T03:15:30;14.90;;;8.77;;
69083;SDS011;56185;48.526;9.044;2023-01-30T03:18:04;15.60;;;8.45;;
69083;SDS011;56185;48.526;9.044;2023-01-30T03:20:30;17.63;;;8.70;;
69083;SDS011;56185;48.526;9.044;2023-01-30T03:23:01;15.88;;;8.25;;
69083;SDS011;56185;48.526;9.044;2023-01-30T03:25:26;14.95;;;8.25;;
69083;SDS011;56185;48.526;9.044;2023-01-30T03:27:52;14.40;;;8.18;;
69083;SDS011;56185;48.526;9.044;2023-01-30T03:30:19;15.10;;;8.18;;
69083;SDS011;56185;48.526;9.044;2023-01-30T03:32:44;14.90;;;8.27;;
69083;SDS011;56185;48.526;9.044;2023-01-30T03:35:10;15.30;;;7.80;;
69083;SDS011;56185;48.526;9.044;2023-01-30T03:37:35;13.65;;;7.63;;
69083;SDS011;56185;48.526;9.044;2023-01-30T03:40:01;15.95;;;8.60;;
69083;SDS011;56185;48.526;9.044;2023-01-30T03:42:26;11.65;;;7.30;;
69083;SDS011;56185;48.526;9.044;2023-01-30T03:44:52;14.43;;;8.00;;
69083;SDS011;56185;48.526;9.044;2023-01-30T03:47:17;16.63;;;8.27;;
69083;SDS011;56185;48.526;9.044;2023-01-30T03:49:43;14.57;;;8.23;;
69083;SDS011;56185;48.526;9.044;2023-01-30T03:52:08;13.25;;;7.63;;
69083;SDS011;56185;48.526;9.044;2023-01-30T03:54:33;14.30;;;7.35;;
69083;SDS011;56185;48.526;9.044;2023-01-30T03:56:58;13.90;;;7.30;;
69083;SDS011;56185;48.526;9.044;2023-01-30T03:59:24;11.93;;;6.82;;
69083;SDS011;56185;48.526;9.044;2023-01-30T04:01:49;14.00;;;7.80;;
69083;SDS011;56185;48.526;9.044;2023-01-30T04:04:14;12.55;;;7.40;;
69083;SDS011;56185;48.526;9.044;2023-01-30T04:06:39;13.88;;;7.82;;
69083;SDS011;56185;48.526;9.044;2023-01-30T04:09:05;11.32;;;6.78;;
69083;SDS011;56185;48.526;9.044;2023-01-30T04:11:30;12.73;;;7.22;;
69083;SDS011;56185;48.526;9.044;2023-01-30T04:13:55;12.23;;;7.55;;
69083;SDS011;56185;48.526;9.044;2023-01-30T04:16:22;13.70;;;7.60;;
69083;SDS011;56185;48.526;9.044;2023-01-30T04:18:49;12.13;;;6.97;;
69083;SDS011;56185;48.526;9.044;2023-01-30T04:21:15;12.32;;;7.20;;
69083;SDS011;56185;48.526;9.044;2023-01-30T04:23:41;11.73;;;6.85;;
69083;SDS011;56185;48.526;9.044;2023-01-30T04:26:06;14.73;;;7.85;;
69083;SDS011;56185;48.526;9.044;2023-01-30T04:28:32;13.68;;;7.38;;
69083;SDS011;56185;48.526;9.044;2023-01-30T04:30:58;13.75;;;7.20;;
69083;SDS011;56185;48.526;9.044;2023-01-30T04:33:24;14.70;;;8.07;;
69083;SDS011;56185;48.526;9.044;2023-01-30T04:35:51;15.20;;;8.60;;
69083;SDS011;56185;48.526;9.044;2023-01-30T04:38:20;13.50;;;7.97;;
69083;SDS011;56185;48.526;9.044;2023-01-30T04:40:47;14.70;;;7.93;;
69083;SDS011;56185;48.526;9.044;2023-01-30T04:43:16;13.63;;;7.65;;
69083;SDS011;56185;48.526;9.044;2023-01-30T04:45:43;13.95;;;7.93;;
69083;SDS011;56185;48.526;9.044;2023-01-30T04:48:08;13.68;;;7.72;;
69083;SDS011;56185;48.526;9.044;2023-01-30T04:50:34;13.40;;;7.80;;
69083;SDS011;56185;48.526;9.044;2023-01-30T04:52:59;14.25;;;7.45;;
69083;SDS011;56185;48.526;9.044;2023-01-30T04:55:24;13.20;;;7.53;;
69083;SDS011;56185;48.526;9.044;2023-01-30T04:57:49;13.32;;;7.30;;
69083;SDS011;56185;48.526;9.044;2023-01-30T05:00:15;14.60;;;7.82;;
69083;SDS011;56185;48.526;9.044;2023-01-30T05:02:40;13.23;;;6.88;;
69083;SDS011;56185;48.526;9.044;2023-01-30T05:05:06;11.45;;;7.18;;
69083;SDS011;56185;48.526;9.044;2023-01-30T05:07:31;12.88;;;7.45;;
69083;SDS011;56185;48.526;9.044;2023-01-30T05:09:56;12.05;;;7.20;;
69083;SDS011;56185;48.526;9.044;2023-01-30T05:12:22;12.55;;;7.32;;
69083;SDS011;56185;48.526;9.044;2023-01-30T05:14:47;12.77;;;7.50;;
69083;SDS011;56185;48.526;9.044;2023-01-30T05:17:12;12.95;;;7.38;;
69083;SDS011;56185;48.526;9.044;2023-01-30T05:19:37;13.20;;;7.15;;
69083;SDS011;56185;48.526;9.044;2023-01-30T05:22:03;12.55;;;7.28;;
69083;SDS011;56185;48.526;9.044;2023-01-30T05:24:28;15.20;;;7.78;;
69083;SDS011;56185;48.526;9.044;2023-01-30T05:26:53;10.80;;;6.53;;
69083;SDS011;56185;48.526;9.044;2023-01-30T05:29:18;16.25;;;7.22;;
69083;SDS011;56185;48.526;9.044;2023-01-30T05:31:44;13.57;;;7.68;;
69083;SDS011;56185;48.526;9.044;2023-01-30T05:34:10;11.70;;;7.25;;
69083;SDS011;56185;48.526;9.044;2023-01-30T05:36:36;15.18;;;8.10;;
69083;SDS011;56185;48.526;9.044;2023-01-30T05:39:01;12.05;;;7.15;;
69083;SDS011;56185;48.526;9.044;2023-01-30T05:41:26;14.10;;;7.57;;
69083;SDS011;56185;48.526;9.044;2023-01-30T05:43:52;14.73;;;8.07;;
69083;SDS011;56185;48.526;9.044;2023-01-30T05:46:17;11.65;;;7.22;;
69083;SDS011;56185;48.526;9.044;2023-01-30T05:48:42;12.57;;;7.32;;
69083;SDS011;56185;48.526;9.044;2023-01-30T05:51:14;13.85;;;7.32;;
69083;SDS011;56185;48.526;9.044;2023-01-30T05:53:41;11.35;;;7.20;;
69083;SDS011;56185;48.526;9.044;2023-01-30T05:56:06;12.85;;;7.43;;
69083;SDS011;56185;48.526;9.044;2023-01-30T05:58:32;11.80;;;7.32;;
69083;SDS011;56185;48.526;9.044;2023-01-30T06:01:01;13.38;;;7.47;;
69083;SDS011;56185;48.526;9.044;2023-01-30T06:03:28;12.15;;;7.22;;
69083;SDS011;56185;48.526;9.044;2023-01-30T06:05:53;17.05;;;7.97;;
69083;SDS011;56185;48.526;9.044;2023-01-30T06:08:18;12.77;;;7.28;;
69083;SDS011;56185;48.526;9.044;2023-01-30T06:10:44;11.00;;;6.57;;
69083;SDS011;56185;48.526;9.044;2023-01-30T06:13:09;12.73;;;6.53;;
69083;SDS011;56185;48.526;9.044;2023-01-30T06:15:34;11.32;;;7.13;;
69083;SDS011;56185;48.526;9.044;2023-01-30T06:17:59;10.45;;;6.57;;
69083;SDS011;56185;48.526;9.044;2023-01-30T06:20:25;11.05;;;6.72;;
69083;SDS011;56185;48.526;9.044;2023-01-30T06:22:50;11.10;;;6.53;;
69083;SDS011;56185;48.526;9.044;2023-01-30T06:25:15;10.65;;;6.13;;
69083;SDS011;56185;48.526;9.044;2023-01-30T06:27:40;10.38;;;6.03;;
69083;SDS011;56185;48.526;9.044;2023-01-30T06:30:06;11.20;;;6.60;;
69083;SDS011;56185;48.526;9.044;2023-01-30T06:32:32;10.45;;;7.00;;
69083;SDS011;56185;48.526;9.044;2023-01-30T06:34:58;11.27;;;6.20;;
69083;SDS011;56185;48.526;9.044;2023-01-30T06:37:23;11.00;;;6.18;;
69083;SDS011;56185;48.526;9.044;2023-01-30T06:39:48;10.15;;;6.22;;
69083;SDS011;56185;48.526;9.044;2023-01-30T06:42:14;10.57;;;5.93;;
69083;SDS011;56185;48.526;9.044;2023-01-30T06:44:39;11.40;;;6.57;;
69083;SDS011;56185;48.526;9.044;2023-01-30T06:47:04;10.55;;;6.15;;
69083;SDS011;56185;48.526;9.044;2023-01-30T06:49:29;11.80;;;7.35;;
69083;SDS011;56185;48.526;9.044;2023-01-30T06:51:55;11.32;;;6.35;;
69083;SDS011;56185;48.526;9.044;2023-01-30T06:54:20;8.63;;;5.47;;
69083;SDS011;56185;48.526;9.044;2023-01-30T06:56:45;11.27;;;6.35;;
69083;SDS011;56185;48.526;9.044;2023-01-30T06:59:10;9.40;;;5.50;;
69083;SDS011;56185;48.526;9.044;2023-01-30T07:01:36;10.65;;;6.38;;
69083;SDS011;56185;48.526;9.044;2023-01-30T07:04:01;10.48;;;5.75;;
69083;SDS011;56185;48.526;9.044;2023-01-30T07:06:26;8.88;;;5.40;;
69083;SDS011;56185;48.526;9.044;2023-01-30T07:08:52;12.00;;;6.57;;
69083;SDS011;56185;48.526;9.044;2023-01-30T07:11:17;10.10;;;5.95;;
69083;SDS011;56185;48.526;9.044;2023-01-30T07:13:42;10.88;;;5.97;;
69083;SDS011;56185;48.526;9.044;2023-01-30T07:16:08;11.98;;;6.72;;
69083;SDS011;56185;48.526;9.044;2023-01-30T07:18:33;10.18;;;6.13;;
69083;SDS011;56185;48.526;9.044;2023-01-30T07:20:58;11.10;;;6.80;;
69083;SDS011;56185;48.526;9.044;2023-01-30T07:23:23;9.25;;;5.72;;
69083;SDS011;56185;48.526;9.044;2023-01-30T07:25:49;10.43;;;6.07;;
69083;SDS011;56185;48.526;9.044;2023-01-30T07:28:14;12.18;;;6.65;;
69083;SDS011;56185;48.526;9.044;2023-01-30T07:30:39;10.40;;;6.10;;
69083;SDS011;56185;48.526;9.044;2023-01-30T07:33:04;12.18;;;6.40;;
69083;SDS011;56185;48.526;9.044;2023-01-30T07:35:30;11.35;;;6.22;;
69083;SDS011;56185;48.526;9.044;2023-01-30T07:37:57;12.52;;;6.35;;
69083;SDS011;56185;48.526;9.044;2023-01-30T07:40:23;10.23;;;5.97;;
69083;SDS011;56185;48.526;9.044;2023-01-30T07:43:02;10.27;;;6.10;;
69083;SDS011;56185;48.526;9.044;2023-01-30T07:45:42;10.32;;;5.80;;
69083;SDS011;56185;48.526;9.044;2023-01-30T07:48:09;11.75;;;6.22;;
69083;SDS011;56185;48.526;9.044;2023-01-30T07:50:36;10.63;;;5.97;;
69083;SDS011;56185;48.526;9.044;2023-01-30T07:53:05;9.27;;;5.40;;
69083;SDS011;56185;48.526;9.044;2023-01-30T07:55:32;11.75;;;6.22;;
69083;SDS011;56185;48.526;9.044;2023-01-30T07:57:58;9.68;;;6.07;;
69083;SDS011;56185;48.526;9.044;2023-01-30T08:00:23;9.10;;;5.55;;
69083;SDS011;56185;48.526;9.044;2023-01-30T08:02:49;9.60;;;6.05;;
69083;SDS011;56185;48.526;9.044;2023-01-30T08:05:14;11.13;;;5.90;;
69083;SDS011;56185;48.526;9.044;2023-01-30T08:07:40;9.98;;;5.60;;
69083;SDS011;56185;48.526;9.044;2023-01-30T08:10:05;10.07;;;5.80;;
69083;SDS011;56185;48.526;9.044;2023-01-30T08:12:31;9.15;;;5.85;;
69083;SDS011;56185;48.526;9.044;2023-01-30T08:14:56;8.95;;;5.38;;
69083;SDS011;56185;48.526;9.044;2023-01-30T08:17:21;10.90;;;6.13;;
69083;SDS011;56185;48.526;9.044;2023-01-30T08:19:47;8.63;;;5.22;;
69083;SDS011;56185;48.526;9.044;2023-01-30T08:22:12;8.27;;;5.35;;
69083;SDS011;56185;48.526;9.044;2023-01-30T08:24:38;9.15;;;5.63;;
69083;SDS011;56185;48.526;9.044;2023-01-30T08:27:03;9.50;;;5.25;;
69083;SDS011;56185;48.526;9.044;2023-01-30T08:29:28;10.50;;;6.07;;
69083;SDS011;56185;48.526;9.044;2023-01-30T08:31:57;9.50;;;5.22;;
69083;SDS011;56185;48.526;9.044;2023-01-30T08:34:23;11.23;;;6.65;;
69083;SDS011;56185;48.526;9.044;2023-01-30T08:36:49;11.80;;;5.38;;
69083;SDS011;56185;48.526;9.044;2023-01-30T08:39:14;12.02;;;5.70;;
69083;SDS011;56185;48.526;9.044;2023-01-30T08:41:39;10.75;;;5.95;;
69083;SDS011;56185;48.526;9.044;2023-01-30T08:44:04;11.38;;;5.93;;
69083;SDS011;56185;48.526;9.044;2023-01-30T08:46:29;8.88;;;5.18;;
69083;SDS011;56185;48.526;9.044;2023-01-30T08:48:55;9.07;;;5.50;;
69083;SDS011;56185;48.526;9.044;2023-01-30T08:51:20;9.70;;;5.70;;
69083;SDS011;56185;48.526;9.044;2023-01-30T08:53:45;11.30;;;6.05;;
69083;SDS011;56185;48.526;9.044;2023-01-30T08:56:10;9.73;;;5.55;;
69083;SDS011;56185;48.526;9.044;2023-01-30T08:58:36;8.85;;;5.32;;
69083;SDS011;56185;48.526;9.044;2023-01-30T09:01:05;9.50;;;5.25;;
69083;SDS011;56185;48.526;9.044;2023-01-30T09:03:30;8.38;;;5.30;;
69083;SDS011;56185;48.526;9.044;2023-01-30T09:05:56;8.70;;;5.13;;
69083;SDS011;56185;48.526;9.044;2023-01-30T09:08:21;8.85;;;5.43;;
69083;SDS011;56185;48.526;9.044;2023-01-30T09:10:46;8.90;;;5.35;;
69083;SDS011;56185;48.526;9.044;2023-01-30T09:13:11;10.07;;;5.45;;
69083;SDS011;56185;48.526;9.044;2023-01-30T09:15:39;9.25;;;5.03;;
69083;SDS011;56185;48.526;9.044;2023-01-30T09:18:06;8.52;;;5.30;;
69083;SDS011;56185;48.526;9.044;2023-01-30T09:20:31;9.70;;;5.15;;
69083;SDS011;56185;48.526;9.044;2023-01-30T09:22:56;9.25;;;5.70;;
69083;SDS011;56185;48.526;9.044;2023-01-30T09:25:21;7.95;;;4.57;;
69083;SDS011;56185;48.526;9.044;2023-01-30T09:27:47;9.07;;;4.65;;
69083;SDS011;56185;48.526;9.044;2023-01-30T09:30:13;8.65;;;4.90;;
69083;SDS011;56185;48.526;9.044;2023-01-30T09:32:38;10.13;;;4.97;;
69083;SDS011;56185;48.526;9.044;2023-01-30T09:35:04;8.82;;;5.10;;
69083;SDS011;56185;48.526;9.044;2023-01-30T09:37:29;7.38;;;4.55;;
69083;SDS011;56185;48.526;9.044;2023-01-30T09:39:54;10.87;;;5.10;;
69083;SDS011;56185;48.526;9.044;2023-01-30T09:42:33;9.60;;;4.93;;
69083;SDS011;56185;48.526;9.044;2023-01-30T09:45:56;8.68;;;5.53;;
69083;SDS011;56185;48.526;9.044;2023-01-30T09:48:20;9.52;;;5.07;;
69083;SDS011;56185;48.526;9.044;2023-01-30T09:53:36;7.53;;;4.47;;
69083;SDS011;56185;48.526;9.044;2023-01-30T09:56:25;10.45;;;5.10;;
69083;SDS011;56185;48.526;9.044;2023-01-30T09:58:52;8.20;;;4.43;;
69083;SDS011;56185;48.526;9.044;2023-01-30T10:01:22;6.40;;;4.03;;
69083;SDS011;56185;48.526;9.044;2023-01-30T10:04:14;6.95;;;4.32;;
69083;SDS011;56185;48.526;9.044;2023-01-30T10:06:41;6.53;;;4.10;;
69083;SDS011;56185;48.526;9.044;2023-01-30T10:09:32;6.07;;;4.18;;
69083;SDS011;56185;48.526;9.044;2023-01-30T10:14:50;6.38;;;4.30;;
69083;SDS011;56185;48.526;9.044;2023-01-30T10:17:41;10.23;;;4.10;;
69083;SDS011;56185;48.526;9.044;2023-01-30T10:23:15;6.25;;;4.20;;
69083;SDS011;56185;48.526;9.044;2023-01-30T10:25:53;6.55;;;3.55;;
69083;SDS011;56185;48.526;9.044;2023-01-30T10:28:25;6.95;;;4.35;;
69083;SDS011;56185;48.526;9.044;2023-01-30T10:31:02;7.82;;;3.88;;
69083;SDS011;56185;48.526;9.044;2023-01-30T10:33:37;4.82;;;3.33;;
69083;SDS011;56185;48.526;9.044;2023-01-30T10:39:34;6.50;;;3.42;;
69083;SDS011;56185;48.526;9.044;2023-01-30T10:44:39;6.90;;;3.88;;
69083;SDS011;56185;48.526;9.044;2023-01-30T10:49:47;6.53;;;3.40;;
69083;SDS011;56185;48.526;9.044;2023-01-30T10:54:50;5.30;;;3.42;;
69083;SDS011;56185;48.526;9.044;2023-01-30T10:57:22;5.72;;;3.53;;
69083;SDS011;56185;48.526;9.044;2023-01-30T11:00:00;5.00;;;3.15;;
69083;SDS011;56185;48.526;9.044;2023-01-30T11:05:14;5.15;;;3.10;;
69083;SDS011;56185;48.526;9.044;2023-01-30T11:07:41;4.82;;;2.60;;
69083;SDS011;56185;48.526;9.044;2023-01-30T11:10:15;4.85;;;2.85;;
69083;SDS011;56185;48.526;9.044;2023-01-30T11:12:40;4.93;;;2.95;;
69083;SDS011;56185;48.526;9.044;2023-01-30T11:15:06;4.95;;;2.60;;
69083;SDS011;56185;48.526;9.044;2023-01-30T11:17:33;4.65;;;2.85;;
69083;SDS011;56185;48.526;9.044;2023-01-30T11:20:09;4.93;;;2.58;;
69083;SDS011;56185;48.526;9.044;2023-01-30T11:22:48;5.00;;;2.75;;
69083;SDS011;56185;48.526;9.044;2023-01-30T11:25:15;3.60;;;2.42;;
69083;SDS011;56185;48.526;9.044;2023-01-30T11:27:50;3.28;;;2.30;;
69083;SDS011;56185;48.526;9.044;2023-01-30T11:30:18;3.75;;;2.35;;
69083;SDS011;56185;48.526;9.044;2023-01-30T11:32:46;4.80;;;2.72;;
69083;SDS011;56185;48.526;9.044;2023-01-30T11:37:38;4.87;;;2.60;;
69083;SDS011;56185;48.526;9.044;2023-01-30T11:40:11;4.53;;;2.83;;
69083;SDS011;56185;48.526;9.044;2023-01-30T11:42:39;6.88;;;2.90;;
69083;SDS011;56185;48.526;9.044;2023-01-30T11:45:10;5.45;;;2.60;;
69083;SDS011;56185;48.526;9.044;2023-01-30T11:47:36;5.05;;;3.20;;
69083;SDS011;56185;48.526;9.044;2023-01-30T11:50:01;5.05;;;2.72;;
69083;SDS011;56185;48.526;9.044;2023-01-30T11:52:28;6.13;;;2.90;;
69083;SDS011;56185;48.526;9.044;2023-01-30T11:54:58;6.22;;;3.08;;
69083;SDS011;56185;48.526;9.044;2023-01-30T11:57:26;5.13;;;2.70;;
69083;SDS011;56185;48.526;9.044;2023-01-30T11:59:55;4.25;;;2.60;;
69083;SDS011;56185;48.526;9.044;2023-01-30T12:02:28;4.03;;;2.70;;
69083;SDS011;56185;48.526;9.044;2023-01-30T12:05:06;4.07;;;2.55;;
69083;SDS011;56185;48.526;9.044;2023-01-30T12:07:45;5.25;;;2.85;;
69083;SDS011;56185;48.526;9.044;2023-01-30T12:12:49;4.20;;;2.72;;
69083;SDS011;56185;48.526;9.044;2023-01-30T12:15:18;4.40;;;3.13;;
69083;SDS011;56185;48.526;9.044;2023-01-30T12:23:11;5.35;;;3.33;;
69083;SDS011;56185;48.526;9.044;2023-01-30T12:28:28;5.20;;;3.20;;
69083;SDS011;56185;48.526;9.044;2023-01-30T12:31:01;5.97;;;3.20;;
69083;SDS011;56185;48.526;9.044;2023-01-30T12:33:33;5.60;;;3.80;;
69083;SDS011;56185;48.526;9.044;2023-01-30T12:36:01;5.18;;;3.63;;
69083;SDS011;56185;48.526;9.044;2023-01-30T12:38:44;6.53;;;3.28;;
69083;SDS011;56185;48.526;9.044;2023-01-30T12:56:53;5.63;;;3.30;;
69083;SDS011;56185;48.526;9.044;2023-01-30T13:02:44;6.40;;;3.53;;
69083;SDS011;56185;48.526;9.044;2023-01-30T13:18:51;5.70;;;3.53;;
69083;SDS011;56185;48.526;9.044;2023-01-30T13:22:16;5.25;;;3.55;;
69083;SDS011;56185;48.526;9.044;2023-01-30T13:27:18;7.05;;;4.20;;
69083;SDS011;56185;48.526;9.044;2023-01-30T13:29:46;6.43;;;3.90;;
69083;SDS011;56185;48.526;9.044;2023-01-30T13:32:14;6.78;;;3.72;;
69083;SDS011;56185;48.526;9.044;2023-01-30T13:34:54;7.38;;;4.43;;
69083;SDS011;56185;48.526;9.044;2023-01-30T13:37:24;7.03;;;4.28;;
69083;SDS011;56185;48.526;9.044;2023-01-30T13:42:24;6.15;;;3.53;;
69083;SDS011;56185;48.526;9.044;2023-01-30T13:45:27;5.85;;;3.70;;
69083;SDS011;56185;48.526;9.044;2023-01-30T13:48:00;6.57;;;3.63;;
69083;SDS011;56185;48.526;9.044;2023-01-30T13:50:54;6.75;;;4.00;;
69083;SDS011;56185;48.526;9.044;2023-01-30T14:02:07;7.32;;;3.63;;
69083;SDS011;56185;48.526;9.044;2023-01-30T14:06:54;6.70;;;3.50;;
69083;SDS011;56185;48.526;9.044;2023-01-30T14:09:32;5.22;;;3.35;;
69083;SDS011;56185;48.526;9.044;2023-01-30T14:11:59;7.60;;;4.10;;
69083;SDS011;56185;48.526;9.044;2023-01-30T14:16:54;10.52;;;4.00;;
69083;SDS011;56185;48.526;9.044;2023-01-30T14:22:01;5.78;;;3.30;;
69083;SDS011;56185;48.526;9.044;2023-01-30T14:24:41;5.78;;;3.38;;
69083;SDS011;56185;48.526;9.044;2023-01-30T14:27:25;6.32;;;3.70;;
69083;SDS011;56185;48.526;9.044;2023-01-30T14:29:52;6.20;;;3.70;;
69083;SDS011;56185;48.526;9.044;2023-01-30T14:34:44;6.27;;;4.10;;
69083;SDS011;56185;48.526;9.044;2023-01-30T14:37:44;6.18;;;3.72;;
69083;SDS011;56185;48.526;9.044;2023-01-30T14:43:12;6.97;;;4.07;;
69083;SDS011;56185;48.526;9.044;2023-01-30T14:45:52;6.07;;;3.75;;
69083;SDS011;56185;48.526;9.044;2023-01-30T14:53:47;6.43;;;3.67;;
69083;SDS011;56185;48.526;9.044;2023-01-30T15:04:33;5.68;;;3.70;;
69083;SDS011;56185;48.526;9.044;2023-01-30T15:10:06;6.15;;;4.03;;
69083;SDS011;56185;48.526;9.044;2023-01-30T15:12:46;6.75;;;3.85;;
69083;SDS011;56185;48.526;9.044;2023-01-30T15:31:56;5.00;;;3.40;;
69083;SDS011;56185;48.526;9.044;2023-01-30T15:34:27;5.20;;;3.40;;
69083;SDS011;56185;48.526;9.044;2023-01-30T15:36:54;5.07;;;3.35;;
69083;SDS011;56185;48.526;9.044;2023-01-30T15:39:20;6.03;;;3.47;;
69083;SDS011;56185;48.526;9.044;2023-01-30T15:41:47;5.18;;;3.47;;
69083;SDS011;56185;48.526;9.044;2023-01-30T15:52:02;11.00;;;5.22;;
69083;SDS011;56185;48.526;9.044;2023-01-30T15:54:29;8.30;;;5.05;;
69083;SDS011;56185;48.526;9.044;2023-01-30T15:56:55;6.07;;;3.80;;
69083;SDS011;56185;48.526;9.044;2023-01-30T15:59:36;8.13;;;4.28;;
69083;SDS011;56185;48.526;9.044;2023-01-30T16:02:03;6.53;;;3.90;;
69083;SDS011;56185;48.526;9.044;2023-01-30T16:04:32;5.43;;;3.47;;
69083;SDS011;56185;48.526;9.044;2023-01-30T16:06:57;5.65;;;3.70;;
69083;SDS011;56185;48.526;9.044;2023-01-30T16:09:24;5.20;;;3.63;;
69083;SDS011;56185;48.526;9.044;2023-01-30T16:11:49;12.52;;;5.75;;
69083;SDS011;56185;48.526;9.044;2023-01-30T16:14:16;6.07;;;3.65;;
69083;SDS011;56185;48.526;9.044;2023-01-30T16:16:47;8.15;;;3.70;;
69083;SDS011;56185;48.526;9.044;2023-01-30T16:19:26;5.75;;;3.90;;
69083;SDS011;56185;48.526;9.044;2023-01-30T16:21:54;5.13;;;3.42;;
69083;SDS011;56185;48.526;9.044;2023-01-30T16:24:30;8.55;;;3.55;;
69083;SDS011;56185;48.526;9.044;2023-01-30T16:27:01;5.13;;;3.60;;
69083;SDS011;56185;48.526;9.044;2023-01-30T16:29:30;6.28;;;3.70;;
69083;SDS011;56185;48.526;9.044;2023-01-30T16:31:59;4.63;;;3.25;;
69083;SDS011;56185;48.526;9.044;2023-01-30T16:37:02;4.57;;;3.30;;
69083;SDS011;56185;48.526;9.044;2023-01-30T16:39:33;4.53;;;3.13;;
69083;SDS011;56185;48.526;9.044;2023-01-30T16:42:01;5.40;;;3.13;;
69083;SDS011;56185;48.526;9.044;2023-01-30T16:44:28;4.63;;;3.10;;
69083;SDS011;56185;48.526;9.044;2023-01-30T16:52:02;4.90;;;2.95;;
69083;SDS011;56185;48.526;9.044;2023-01-30T16:54:37;5.88;;;2.75;;
69083;SDS011;56185;48.526;9.044;2023-01-30T16:57:04;5.40;;;3.38;;
69083;SDS011;56185;48.526;9.044;2023-01-30T16:59:31;5.40;;;3.67;;
69083;SDS011;56185;48.526;9.044;2023-01-30T17:01:58;4.93;;;3.33;;
69083;SDS011;56185;48.526;9.044;2023-01-30T17:04:29;5.65;;;3.40;;
69083;SDS011;56185;48.526;9.044;2023-01-30T17:07:00;4.35;;;2.95;;
69083;SDS011;56185;48.526;9.044;2023-01-30T17:11:57;4.45;;;2.67;;
69083;SDS011;56185;48.526;9.044;2023-01-30T17:14:26;5.40;;;3.10;;
69083;SDS011;56185;48.526;9.044;2023-01-30T17:16:59;4.80;;;2.97;;
69083;SDS011;56185;48.526;9.044;2023-01-30T17:19:26;5.03;;;3.42;;
69083;SDS011;56185;48.526;9.044;2023-01-30T17:21:51;4.97;;;3.30;;
69083;SDS011;56185;48.526;9.044;2023-01-30T17:24:18;5.93;;;3.30;;
69083;SDS011;56185;48.526;9.044;2023-01-30T17:26:46;7.95;;;3.90;;
69083;SDS011;56185;48.526;9.044;2023-01-30T17:29:13;6.80;;;3.85;;
69083;SDS011;56185;48.526;9.044;2023-01-30T17:31:41;5.22;;;3.65;;
69083;SDS011;56185;48.526;9.044;2023-01-30T17:34:10;5.53;;;3.42;;